Pagrindinis puslapis
METAR-TAF:

METAR-TAF

Oro uostai :

Tarptautinis Brazilijos oro uostas

Brazilija, Federal District, Brazilija

platuma: 15-52S, ilguma: 047-56W, Aukštis: 1061 m

Dabartinis oras

Ataskaita buvo paskelbta 48 minutes, ne 22:00 UTC
Vėjas 7 kt iš Rytų
Temperatūra 29°C
Drėgmė 27%
Slėgis 1018 hPa
Matomumas 10 km arba daugiau
nėra debesų žemiau 1500 m ir nėra kamuolinių lietaus debesų

METAR: SBBR 162200Z 09007KT CAVOK 29/08 Q1018

Laikas: 19:48 (22:48 UTC)

Prognozė

Ataskaita buvo paskelbta 6 valandos ir 48 minutes, ne 16:00 UTC
Prognozė galioja nuo 16 metu 18 UTC su 17 metu 18 UTC
Vėjas 7 kt iš Rytų
Matomumas 10 km arba daugiau
nėra debesų žemiau 1500 m ir nėra kamuolinių lietaus debesų
Tapsmas
nuo 16 metu 21 UTC su 16 metu 23 UTC
Vėjas 5 kt iš Rytų/Pietryčių
Tapsmas
nuo 17 metu 05 UTC su 17 metu 07 UTC
Vėjas 3 kt iš Vakarų
Tapsmas
nuo 17 metu 12 UTC su 17 metu 14 UTC
Vėjas 15 kt iš Rytų/Šiaurės Rytų

TAF: SBBR 161600Z 1618/1718 08007KT CAVOK TX31/1618Z TN17/1707Z BECMG 1621/1623 12005KT BECMG 1705/1707 26003KT BECMG 1712/1714 07015KT RMK PAY

Orai ataskaitas ir orų prognozės (METAR, TAF).

turimą stotys yra geltonos ir raudonos taškus žemėlapyje.

Perkelti pele per norėdami pamatyti stoties vardą.

Tada spustelėkite, norėdami matyti oro stebėjimo ir prognozės.

Norėdami pakeisti žemėlapį: spustelėkite ant žalios mygtukų su juodo kryžiaus žemyn,; žalią mygtuką su brūkšneliu, jei norite nutolinti; arba žalių rodyklių gretimoms žemėlapius.


METAR-TAF: